• Join FlightAware (Why Join?)
  • Login
  • US Flag 
12:44PM EDT


 

Airport Tracker/Info


-or-


 

Live Flight TrackerFlight Track Log ✈ QLK107D ✈ 25-Oct-2013 ✈ YCFS - YSSY / SYD

Flight Track Log - Related Links

Times and Time Zones

All times are in EDT time to prevent confusion due to time zone crossing. See the QLK107D flight status page for this flight to view local times or setup timezone preferences in your user account.

Time Position Orientation Groundspeed Altitude Reporting Facility
EDT Latitude Longitude Course Direction KTS MPH feet Rate Location/Type
07:33PM -30.4248 153.0320 215° Southwest  Level FlightAware Approximate
07:33PM -30.3898 153.0670 215° Southwest 129 148 3,600  Level Aus ATC (RADAR)
07:34PM -30.4172 153.0418 219° Southwest 201 231 5,400 3,000 Climbing Aus ATC (RADAR)
07:35PM -30.4515 153.0138 215° Southwest 203 234 7,600 2,880 Climbing Aus ATC (RADAR)
07:35PM -30.4746 152.9899 222° Southwest 194 223 9,300 2,280 Climbing Aus ATC (RADAR)
07:36PM -30.5002 152.9329 242° Southwest 214 246 11,100 2,040 Climbing Aus ATC (RADAR)
07:36PM -30.5081 152.9174 239° Southwest 217 250 11,700 1,500 Climbing Aus ATC (RADAR)
07:37PM -30.5436 152.8494 239° Southwest 254 292 13,000 1,440 Climbing Aus ATC (RADAR)
07:38PM -30.5630 152.8135 238° Southwest 260 299 13,900 1,620 Climbing Aus ATC (RADAR)
07:38PM -30.5794 152.7840 237° Southwest 259 298 14,500 1,500 Climbing Aus ATC (RADAR)
07:39PM -30.6038 152.7425 236° Southwest 265 305 15,400 1,440 Climbing Aus ATC (RADAR)
07:39PM -30.6328 152.6960 234° Southwest 267 307 16,300 1,320 Climbing Aus ATC (RADAR)
07:40PM -30.6632 152.6597 226° Southwest 269 310 17,100 1,320 Climbing Aus ATC (RADAR)
07:41PM -30.7209 152.6234 208° Southwest 281 323 18,200 1,260 Climbing Aus ATC (RADAR)
07:41PM -30.7483 152.6043 211° Southwest 277 319 18,700 1,140 Climbing Aus ATC (RADAR)
07:42PM -30.8240 152.5486 212° Southwest 279 321 20,000 1,080 Climbing Aus ATC (RADAR)
07:43PM -30.8572 152.5251 211° Southwest 281 323 20,500 840 Climbing Aus ATC (RADAR)
07:43PM -30.8852 152.5049 212° Southwest 284 327 20,800 960 Climbing Aus ATC (RADAR)
07:44PM -30.9238 152.4762 213° Southwest 283 326 21,500 960 Climbing Aus ATC (RADAR)
07:45PM -30.9627 152.4473 212° Southwest 285 328 22,000 600 Climbing Aus ATC (RADAR)
07:45PM -31.0077 152.4143 212° Southwest 290 334 22,300 180 Climbing Aus ATC (RADAR)
07:46PM -31.0674 152.3708 212° Southwest 306 352 22,300  Level Aus ATC (RADAR)
07:46PM -31.0856 152.3572 213° Southwest 310 357 22,300  Level Aus ATC (RADAR)
07:47PM -31.1738 152.2926 212° Southwest 324 373 22,300  Level Aus ATC (RADAR)
07:48PM -31.2122 152.2640 213° Southwest 328 377 22,300  Level Aus ATC (RADAR)
07:48PM -31.2445 152.2403 212° Southwest 331 381 22,300  Level Aus ATC (RADAR)
07:49PM -31.2899 152.2070 212° Southwest 331 381 22,300  Level Aus ATC (RADAR)
07:50PM -31.3479 152.1640 212° Southwest 330 380 22,300  Level Aus ATC (RADAR)
07:50PM -31.3925 152.1309 212° Southwest 327 376 22,300  Level Aus ATC (RADAR)
07:51PM -31.4562 152.0832 213° Southwest 326 375 22,300  Level Aus ATC (RADAR)
07:52PM -31.4881 152.0600 212° Southwest 325 374 22,300  Level Aus ATC (RADAR)
07:53PM -31.5876 151.9852 213° Southwest 318 366 22,300  Level Aus ATC (RADAR)
07:53PM -31.6195 151.9613 213° Southwest 320 368 22,300  Level Aus ATC (RADAR)
07:54PM -31.6640 151.9289 212° Southwest 320 368 22,300  Level Aus ATC (RADAR)
07:55PM -31.7210 151.8864 212° Southwest 319 367 22,300  Level Aus ATC (RADAR)
07:55PM -31.7654 151.8531 212° Southwest 320 368 22,300  Level Aus ATC (RADAR)
07:56PM -31.8288 151.8054 213° Southwest 322 371 22,300  Level Aus ATC (RADAR)
07:56PM -31.8606 151.7821 212° Southwest 322 371 22,300  Level Aus ATC (RADAR)
07:58PM -31.9617 151.7059 213° Southwest 319 367 22,300  Level Aus ATC (RADAR)
07:58PM -31.9932 151.6815 213° Southwest 320 368 22,300  Level Aus ATC (RADAR)
07:59PM -32.0248 151.6578 212° Southwest 319 367 22,300  Level Aus ATC (RADAR)
07:59PM -32.0690 151.6241 213° Southwest 322 371 22,300  Level Aus ATC (RADAR)
08:00PM -32.1261 151.5809 213° Southwest 322 371 22,300  Level Aus ATC (RADAR)
08:01PM -32.1752 151.5431 213° Southwest 310 357 22,300  Level Aus ATC (RADAR)
08:01PM -32.2257 151.5055 212° Southwest 288 331 22,300  Level Aus ATC (RADAR)
08:02PM -32.2535 151.4841 213° Southwest 284 327 22,300  Level Aus ATC (RADAR)
08:03PM -32.3351 151.4227 212° Southwest 274 315 22,300  Level Aus ATC (RADAR)
08:03PM -32.3617 151.4023 213° Southwest 272 313 22,300  Level Aus ATC (RADAR)
08:04PM -32.3988 151.3740 213° Southwest 269 310 22,300  Level Aus ATC (RADAR)
08:05PM -32.4463 151.3381 213° Southwest 268 308 22,300  Level Aus ATC (RADAR)
08:05PM -32.4826 151.3098 213° Southwest 265 305 22,300  Level Aus ATC (RADAR)
08:06PM -32.5289 151.2746 213° Southwest 261 300 22,300  Level Aus ATC (RADAR)
08:07PM -32.5553 151.2563 210° Southwest 260 299 22,300  Level Aus ATC (RADAR)
08:07PM -32.5993 151.2517 185° South 265 305 22,300  Level Aus ATC (RADAR)
08:09PM -32.7189 151.2490 181° South 268 308 22,300  Level Aus ATC (RADAR)
08:09PM -32.7572 151.2469 183° South 265 305 22,300  Level Aus ATC (RADAR)
08:10PM -32.7996 151.2444 183° South 268 308 22,300  Level Aus ATC (RADAR)
08:10PM -32.8563 151.2413 183° South 264 304 22,300 -540 Level Aus ATC (RADAR)
08:11PM -32.8985 151.2383 183° South 267 307 21,600 -1,680 Descending Aus ATC (RADAR)
08:12PM -32.9517 151.2350 183° South 257 296 20,100 -1,980 Descending Aus ATC (RADAR)
08:12PM -32.9874 151.2344 181° South 257 296 19,200 -1,560 Descending Aus ATC (RADAR)
08:13PM -33.0730 151.2306 182° South 258 297 17,600 -1,440 Descending Aus ATC (RADAR)
08:14PM -33.1029 151.2282 184° South 267 307 17,000 -1,500 Descending Aus ATC (RADAR)
08:15PM -33.1522 151.2245 184° South 266 306 16,000 -1,440 Descending Aus ATC (RADAR)
08:15PM -33.2065 151.2217 182° South 261 300 15,000 -1,380 Descending Aus ATC (RADAR)
08:16PM -33.2496 151.2197 182° South 257 296 14,200 -1,380 Descending Aus ATC (RADAR)
08:17PM -33.3115 151.2162 183° South 248 285 13,000 -1,380 Descending Aus ATC (RADAR)
08:17PM -33.3287 151.2151 183° South 249 287 12,600 -1,380 Descending Aus ATC (RADAR)
08:18PM -33.4186 151.2103 183° South 239 275 10,900 -1,260 Descending Aus ATC (RADAR)
08:19PM -33.4506 151.2083 183° South 232 267 10,300 -1,440 Descending Aus ATC (RADAR)
08:19PM -33.4772 151.2070 182° South 231 266 9,600 -1,440 Descending Aus ATC (RADAR)
08:20PM -33.5157 151.2054 182° South 241 277 8,900 -1,380 Descending Aus ATC (RADAR)
08:21PM -33.5685 151.2027 182° South 254 292 7,800 -1,440 Descending Aus ATC (RADAR)
08:21PM -33.6161 151.1996 183° South 249 287 6,900 -1,380 Descending Aus ATC (RADAR)
08:22PM -33.6653 151.1950 184° South 235 270 5,900 -1,380 Descending Aus ATC (RADAR)
08:22PM -33.6907 151.1896 190° South 216 249 5,300 -1,500 Descending Aus ATC (RADAR)
08:23PM -33.7323 151.1811 190° South 196 226 4,200 -1,380 Descending Aus ATC (RADAR)
08:24PM -33.7621 151.1760 188° South 187 215 3,500 -1,080 Descending Aus ATC (RADAR)
08:24PM -33.7967 151.1692 189° South 186 214 2,900 -780 Descending Aus ATC (RADAR)
08:25PM -33.8384 151.1610 189° South 181 208 2,400 -780 Descending Aus ATC (RADAR)
08:26PM -33.8509 151.1624 175° South 175 201 2,100 -1,080 Descending Aus ATC (RADAR)
08:26PM -33.8782 151.1699 167° South 172 198 1,500 -900 Descending Aus ATC (RADAR)
08:27PM -33.9089 151.1779 168° South 141 162 900 -780 Descending Aus ATC (RADAR)
08:27PM -33.9302 151.1834 168° South 131 151 500 420 Descending Aus ATC (RADAR)
08:29PM -33.9778 151.1990 165° South 164 189 1,700 1,140 Climbing Aus ATC (RADAR)
08:29PM -33.9937 151.2185 135° Southeast 197 227 2,400 1,260 Climbing Aus ATC (RADAR)
08:30PM -34.0208 151.2519 134° Southeast 231 266 3,000 420 Climbing Aus ATC (RADAR)
08:31PM -34.0556 151.3012 130° Southeast 227 261 3,000  Level Aus ATC (RADAR)
08:31PM -34.0408 151.3396 65° Northeast 231 266 3,000  Level Aus ATC (RADAR)
08:32PM -33.9969 151.3558 17° North 222 255 3,000  Level Aus ATC (RADAR)
08:32PM -33.9711 151.3653 17° North 230 265 3,000  Level Aus ATC (RADAR)
08:33PM -33.9063 151.3599 356° North 212 244 3,000  Level Aus ATC (RADAR)
08:34PM -33.8804 151.3442 333° Northwest 207 238 3,000  Level Aus ATC (RADAR)
08:34PM -33.8633 151.3234 315° West 204 235 3,000  Level Aus ATC (RADAR)
08:35PM -33.8396 151.2955 316° Northwest 202 232 3,000 -180 Level Aus ATC (RADAR)
08:36PM -33.8181 151.2565 303° West 181 208 2,800 -420 Descending Aus ATC (RADAR)
08:36PM -33.8109 151.2268 286° West 159 183 2,500 -660 Descending Aus ATC (RADAR)
08:37PM -33.8165 151.1839 261° West 150 173 1,900 -480 Descending Aus ATC (RADAR)
08:37PM -33.8336 151.1748 204° Southwest 162 186 1,900 -360 Level Aus ATC (RADAR)
08:39PM -33.8895 151.1725 182° South 160 184 1,300 -540 Descending Aus ATC (RADAR)
08:39PM -33.9057 151.1770 167° South 143 165 1,000 -720 Descending Aus ATC (RADAR)
08:40PM -33.9202 151.1806 168° South 130 150 700 -660 Descending Aus ATC (RADAR)
08:40PM -33.9424 151.1866 168° South 119 137 300 -660 Descending Aus ATC (RADAR)